Time;durP1;ratioP1;P1;durP2;ratioP2;P2;SDS_P1;SDS_P2;PMS_P1;PMS_P2;Temp;Humidity;BMP_temperature;BMP_pressure;BME280_temperature;BME280_humidity;BME280_pressure;Samples;Min_cycle;Max_cycle;Signal;HPM_P1;HPM_P2
2023/01/11 00:01:50;;;;;;;3.22;1.70;;;;;;;;;;5114818;28;20223;-87
2023/01/11 00:04:18;;;;;;;5.45;2.53;;;;;;;;;;5115003;28;20257;-86
2023/01/11 00:06:46;;;;;;;3.22;1.92;;;;;;;;;;5115187;28;20231;-84
2023/01/11 00:09:15;;;;;;;3.60;1.33;;;;;;;;;;5114155;28;20279;-86
2023/01/11 00:11:43;;;;;;;2.58;1.85;;;;;;;;;;5114695;28;20219;-86
2023/01/11 00:14:11;;;;;;;2.92;1.48;;;;;;;;;;5114988;28;20224;-84
2023/01/11 00:16:40;;;;;;;1.88;1.30;;;;;;;;;;5115329;28;20199;-86
2023/01/11 00:19:07;;;;;;;4.13;1.70;;;;;;;;;;5114437;28;20226;-86
2023/01/11 00:21:35;;;;;;;3.35;2.33;;;;;;;;;;5114547;28;20790;-85
2023/01/11 00:24:02;;;;;;;1.70;1.60;;;;;;;;;;5114635;28;20683;-85
2023/01/11 00:26:30;;;;;;;8.18;2.25;;;;;;;;;;5115002;28;20759;-85
2023/01/11 00:28:57;;;;;;;7.63;1.92;;;;;;;;;;5115359;28;20191;-85
2023/01/11 00:31:24;;;;;;;3.05;1.58;;;;;;;;;;5116114;28;20302;-86
2023/01/11 00:33:53;;;;;;;1.95;1.60;;;;;;;;;;5115683;28;20308;-86
2023/01/11 00:36:21;;;;;;;1.23;1.15;;;;;;;;;;5116181;28;20300;-85
2023/01/11 00:38:52;;;;;;;2.20;1.58;;;;;;;;;;5115465;28;20199;-86
2023/01/11 00:49:38;;;;;;;1.92;1.48;;;;;;;;;;5126748;27;20252;-87
2023/01/11 00:52:07;;;;;;;1.10;1.00;;;;;;;;;;5135993;27;20294;-86
2023/01/11 00:54:35;;;;;;;1.30;1.20;;;;;;;;;;5136777;27;20231;-86
2023/01/11 00:57:05;;;;;;;1.50;1.40;;;;;;;;;;5137079;27;20199;-86
2023/01/11 00:59:32;;;;;;;4.97;1.67;;;;;;;;;;5135133;27;20199;-86
2023/01/11 01:02:00;;;;;;;3.45;1.90;;;;;;;;;;5136019;27;20313;-86
2023/01/11 01:04:27;;;;;;;2.75;1.40;;;;;;;;;;5135958;27;20743;-86
2023/01/11 01:06:56;;;;;;;1.50;1.40;;;;;;;;;;5136192;27;20210;-86
2023/01/11 01:09:24;;;;;;;1.30;1.23;;;;;;;;;;5135289;27;20191;-86
2023/01/11 01:11:51;;;;;;;2.25;1.55;;;;;;;;;;5136095;27;20302;-87
2023/01/11 01:14:41;;;;;;;3.15;1.20;;;;;;;;;;5135466;27;20241;-86
2023/01/11 01:17:09;;;;;;;1.40;1.30;;;;;;;;;;5135688;27;20183;-87
2023/01/11 01:19:38;;;;;;;3.08;1.35;;;;;;;;;;5135105;27;20639;-86
2023/01/11 01:22:07;;;;;;;1.73;1.48;;;;;;;;;;5135888;27;20573;-87
2023/01/11 01:24:35;;;;;;;2.95;1.42;;;;;;;;;;5135403;27;20670;-86
2023/01/11 01:27:02;;;;;;;1.63;1.40;;;;;;;;;;5135754;27;20290;-86
2023/01/11 01:29:30;;;;;;;4.00;1.80;;;;;;;;;;5134637;27;20234;-86
2023/01/11 01:31:57;;;;;;;2.28;2.15;;;;;;;;;;5135251;27;20310;-87
2023/01/11 01:34:25;;;;;;;2.88;2.50;;;;;;;;;;5136006;27;20317;-86
2023/01/11 01:36:52;;;;;;;2.30;1.40;;;;;;;;;;5135276;27;20567;-86
2023/01/11 01:39:21;;;;;;;2.70;1.90;;;;;;;;;;5134696;27;20711;-86
2023/01/11 01:41:48;;;;;;;5.65;1.77;;;;;;;;;;5135448;27;20250;-86
2023/01/11 01:45:01;;;;;;;1.60;1.50;;;;;;;;;;5135261;27;20213;-85
2023/01/11 01:47:39;;;;;;;1.55;1.38;;;;;;;;;;5135770;27;20207;-86
2023/01/11 01:50:13;;;;;;;4.00;3.03;;;;;;;;;;5117211;27;20235;-86
2023/01/11 01:52:41;;;;;;;1.95;1.77;;;;;;;;;;5114859;28;20176;-85
2023/01/11 01:55:15;;;;;;;2.45;1.90;;;;;;;;;;5113989;28;20302;-86
2023/01/11 01:57:43;;;;;;;3.20;1.67;;;;;;;;;;5113872;28;20555;-86
2023/01/11 02:00:13;;;;;;;1.77;1.55;;;;;;;;;;5112770;28;20282;-86
2023/01/11 02:02:42;;;;;;;4.50;1.27;;;;;;;;;;5114315;28;20680;-86
2023/01/11 02:05:10;;;;;;;3.78;2.08;;;;;;;;;;5114042;28;20234;-87
2023/01/11 02:07:40;;;;;;;2.65;2.28;;;;;;;;;;5114560;28;20286;-87
2023/01/11 02:10:14;;;;;;;1.92;1.80;;;;;;;;;;5113520;28;20219;-86
2023/01/11 02:12:45;;;;;;;1.50;1.30;;;;;;;;;;5114338;28;20196;-86
2023/01/11 02:15:13;;;;;;;1.55;1.45;;;;;;;;;;5113935;28;20234;-86
2023/01/11 02:17:40;;;;;;;1.88;1.65;;;;;;;;;;5113878;28;20296;-86
2023/01/11 02:20:45;;;;;;;3.80;2.25;;;;;;;;;;5130520;27;20303;-86
2023/01/11 02:24:07;;;;;;;3.13;1.95;;;;;;;;;;5121692;27;20203;-86
2023/01/11 02:27:16;;;;;;;2.92;1.77;;;;;;;;;;5128852;27;20213;-86
2023/01/11 02:29:56;;;;;;;2.35;1.70;;;;;;;;;;5133374;27;20195;-86
2023/01/11 02:32:30;;;;;;;1.63;1.52;;;;;;;;;;5133925;27;20185;-86
2023/01/11 02:35:08;;;;;;;3.15;2.17;;;;;;;;;;5134002;27;20220;-86
2023/01/11 02:37:43;;;;;;;2.20;1.85;;;;;;;;;;5133828;27;20182;-86
2023/01/11 02:40:20;;;;;;;3.42;1.42;;;;;;;;;;5133353;27;20641;-86
2023/01/11 02:45:46;;;;;;;2.25;1.35;;;;;;;;;;5134151;28;20177;-87
2023/01/11 02:48:23;;;;;;;3.65;1.50;;;;;;;;;;5132124;27;20564;-87
2023/01/11 02:50:57;;;;;;;2.47;1.40;;;;;;;;;;5113214;28;20226;-86
2023/01/11 02:53:28;;;;;;;2.45;1.98;;;;;;;;;;5113343;28;20721;-86
2023/01/11 02:56:01;;;;;;;2.45;1.80;;;;;;;;;;5112978;28;20226;-86
2023/01/11 02:58:33;;;;;;;2.90;1.80;;;;;;;;;;5112774;28;20184;-87
2023/01/11 03:01:02;;;;;;;1.80;1.60;;;;;;;;;;5113122;28;20598;-86
2023/01/11 03:03:29;;;;;;;1.70;1.60;;;;;;;;;;5113330;28;20234;-86
2023/01/11 03:06:01;;;;;;;1.55;1.45;;;;;;;;;;5112695;28;20203;-86
2023/01/11 03:09:18;;;;;;;1.63;1.35;;;;;;;;;;5112411;28;20199;-86
2023/01/11 03:14:56;;;;;;;3.72;2.33;;;;;;;;;;5117051;28;20195;-86
2023/01/11 03:17:37;;;;;;;1.70;1.60;;;;;;;;;;5117265;28;20290;-86
2023/01/11 03:20:12;;;;;;;1.30;1.20;;;;;;;;;;5134089;27;20309;-87
2023/01/11 03:22:46;;;;;;;2.90;1.77;;;;;;;;;;5137657;27;20175;-86
2023/01/11 03:25:19;;;;;;;1.63;1.50;;;;;;;;;;5137898;27;20270;-87
2023/01/11 03:27:52;;;;;;;1.70;1.40;;;;;;;;;;5138017;27;20187;-86
2023/01/11 03:30:27;;;;;;;2.42;1.90;;;;;;;;;;5137354;27;20311;-88
2023/01/11 03:33:03;;;;;;;1.58;1.48;;;;;;;;;;5137740;27;20607;-86
2023/01/11 03:35:35;;;;;;;2.00;1.40;;;;;;;;;;5137466;27;20263;-86
2023/01/11 03:38:07;;;;;;;1.38;1.27;;;;;;;;;;5136957;27;20294;-86
2023/01/11 03:40:40;;;;;;;1.88;1.40;;;;;;;;;;5137573;27;20310;-86
2023/01/11 03:43:11;;;;;;;1.65;1.52;;;;;;;;;;5137565;27;20191;-86
2023/01/11 03:45:44;;;;;;;1.40;1.30;;;;;;;;;;5137562;27;20279;-86
2023/01/11 03:48:17;;;;;;;1.83;1.50;;;;;;;;;;5137211;27;20202;-86
2023/01/11 03:50:46;;;;;;;1.90;1.67;;;;;;;;;;5137174;27;20250;-86
2023/01/11 03:53:15;;;;;;;1.65;1.52;;;;;;;;;;5137407;27;20639;-86
2023/01/11 03:55:45;;;;;;;1.58;1.48;;;;;;;;;;5137276;27;20221;-86
2023/01/11 03:58:12;;;;;;;1.60;1.50;;;;;;;;;;5136806;27;20292;-86
2023/01/11 04:00:41;;;;;;;1.48;1.30;;;;;;;;;;5137741;27;20219;-86
2023/01/11 04:03:11;;;;;;;1.60;1.50;;;;;;;;;;5137500;27;20217;-85
2023/01/11 04:05:50;;;;;;;2.13;1.65;;;;;;;;;;5137283;27;20268;-86
2023/01/11 04:08:18;;;;;;;1.67;1.40;;;;;;;;;;5136305;27;20262;-86
2023/01/11 04:10:45;;;;;;;1.20;1.05;;;;;;;;;;5137091;27;20215;-86
2023/01/11 04:13:13;;;;;;;1.50;1.40;;;;;;;;;;5136966;27;20294;-86
2023/01/11 04:15:40;;;;;;;1.20;1.10;;;;;;;;;;5137038;27;20225;-86
2023/01/11 04:18:08;;;;;;;1.70;1.60;;;;;;;;;;5136209;27;20298;-86
2023/01/11 04:20:39;;;;;;;1.83;1.50;;;;;;;;;;5136556;27;20254;-86
2023/01/11 04:23:09;;;;;;;1.20;1.20;;;;;;;;;;5136855;27;20187;-86
2023/01/11 04:25:37;;;;;;;1.10;1.10;;;;;;;;;;5137945;27;20207;-86
2023/01/11 04:28:04;;;;;;;1.30;1.20;;;;;;;;;;5136406;27;20221;-86
2023/01/11 04:30:32;;;;;;;4.05;1.70;;;;;;;;;;5136812;27;20225;-87
2023/01/11 04:33:00;;;;;;;1.40;1.30;;;;;;;;;;5137022;27;20244;-85
2023/01/11 04:35:28;;;;;;;2.00;1.60;;;;;;;;;;5136362;27;20709;-87
2023/01/11 04:37:56;;;;;;;1.33;1.23;;;;;;;;;;5136405;27;20244;-87
2023/01/11 04:40:25;;;;;;;1.80;1.52;;;;;;;;;;5136364;27;20218;-87
2023/01/11 04:42:51;;;;;;;1.70;1.60;;;;;;;;;;5136305;27;20199;-85
2023/01/11 04:45:19;;;;;;;1.30;1.20;;;;;;;;;;5135815;27;20205;-86
2023/01/11 04:47:46;;;;;;;1.25;1.20;;;;;;;;;;5136166;27;20282;-87
2023/01/11 04:50:14;;;;;;;1.10;1.10;;;;;;;;;;5116612;27;20578;-87
2023/01/11 04:52:41;;;;;;;1.73;1.63;;;;;;;;;;5116002;28;20282;-86
2023/01/11 04:55:09;;;;;;;1.33;1.23;;;;;;;;;;5115567;28;20280;-86
2023/01/11 04:57:38;;;;;;;1.42;1.33;;;;;;;;;;5115192;28;20416;-86
2023/01/11 05:00:09;;;;;;;2.83;1.30;;;;;;;;;;5114896;28;20302;-86
2023/01/11 05:02:37;;;;;;;1.30;1.20;;;;;;;;;;5115737;28;20200;-86
2023/01/11 05:05:05;;;;;;;1.50;1.40;;;;;;;;;;5115449;28;20286;-86
2023/01/11 05:07:33;;;;;;;2.58;1.45;;;;;;;;;;5115131;28;20249;-86
2023/01/11 05:10:00;;;;;;;1.00;1.00;;;;;;;;;;5114248;28;20681;-87
2023/01/11 05:12:28;;;;;;;1.30;1.20;;;;;;;;;;5115102;28;20283;-86
2023/01/11 05:14:58;;;;;;;3.00;1.40;;;;;;;;;;5115165;28;20207;-86
2023/01/11 05:17:25;;;;;;;1.35;1.30;;;;;;;;;;5115607;28;20705;-86
2023/01/11 05:19:52;;;;;;;2.42;1.20;;;;;;;;;;5130820;27;20297;-86
2023/01/11 05:22:20;;;;;;;0.95;0.95;;;;;;;;;;5136288;27;20306;-86
2023/01/11 05:24:47;;;;;;;1.38;1.20;;;;;;;;;;5136082;27;20631;-86
2023/01/11 05:27:15;;;;;;;1.10;1.00;;;;;;;;;;5136378;27;20286;-86
2023/01/11 05:29:44;;;;;;;1.42;1.23;;;;;;;;;;5134775;27;20286;-86
2023/01/11 05:32:13;;;;;;;1.25;1.10;;;;;;;;;;5135254;27;20239;-86
2023/01/11 05:34:40;;;;;;;1.27;1.17;;;;;;;;;;5135773;27;20724;-86
2023/01/11 05:37:07;;;;;;;1.33;1.10;;;;;;;;;;5135727;27;20309;-86
2023/01/11 05:39:35;;;;;;;1.20;1.10;;;;;;;;;;5135061;27;20213;-87
2023/01/11 05:42:02;;;;;;;1.70;1.60;;;;;;;;;;5134672;27;20601;-86
2023/01/11 05:47:16;;;;;;;1.40;1.38;;;;;;;;;;5134626;27;20224;-86
2023/01/11 05:49:43;;;;;;;1.23;1.13;;;;;;;;;;5121829;27;20279;-87
2023/01/11 05:52:11;;;;;;;1.58;1.38;;;;;;;;;;5115769;28;20222;-86
2023/01/11 05:54:38;;;;;;;1.30;1.20;;;;;;;;;;5113927;28;20286;-87
2023/01/11 05:57:09;;;;;;;1.23;1.13;;;;;;;;;;5113733;28;20679;-86
2023/01/11 05:59:36;;;;;;;1.13;1.02;;;;;;;;;;5113182;28;20191;-87
2023/01/11 06:02:04;;;;;;;1.30;1.20;;;;;;;;;;5113299;27;20314;-86
2023/01/11 06:04:33;;;;;;;1.27;1.20;;;;;;;;;;5113518;28;20298;-88
2023/01/11 06:07:00;;;;;;;1.63;1.52;;;;;;;;;;5113548;28;20199;-87
2023/01/11 06:09:28;;;;;;;2.08;1.08;;;;;;;;;;5112772;28;20580;-88
2023/01/11 06:11:55;;;;;;;1.65;1.27;;;;;;;;;;5113682;28;20215;-87
2023/01/11 06:14:23;;;;;;;1.27;1.27;;;;;;;;;;5113365;28;20303;-88
2023/01/11 06:16:50;;;;;;;2.65;1.60;;;;;;;;;;5113392;28;20226;-87
2023/01/11 06:19:18;;;;;;;1.48;1.17;;;;;;;;;;5122993;27;20674;-87
2023/01/11 06:21:47;;;;;;;1.65;1.48;;;;;;;;;;5133821;27;20622;-87
2023/01/11 06:24:14;;;;;;;4.25;1.30;;;;;;;;;;5134148;27;20194;-87
2023/01/11 06:26:42;;;;;;;1.10;1.10;;;;;;;;;;5133994;27;20223;-87
2023/01/11 06:29:10;;;;;;;2.35;1.35;;;;;;;;;;5133010;27;20770;-86
2023/01/11 06:31:37;;;;;;;1.25;1.15;;;;;;;;;;5133825;27;20219;-87
2023/01/11 06:34:05;;;;;;;1.13;1.08;;;;;;;;;;5133996;27;20203;-87
2023/01/11 06:36:32;;;;;;;1.40;1.30;;;;;;;;;;5133843;27;20199;-87
2023/01/11 06:39:02;;;;;;;1.17;1.08;;;;;;;;;;5132935;27;20203;-87
2023/01/11 06:41:30;;;;;;;1.05;1.00;;;;;;;;;;5133447;27;20779;-87
2023/01/11 06:43:57;;;;;;;0.98;0.98;;;;;;;;;;5132864;27;20282;-87
2023/01/11 06:46:25;;;;;;;0.88;0.88;;;;;;;;;;5133168;27;20230;-87
2023/01/11 06:48:52;;;;;;;1.10;1.00;;;;;;;;;;5125638;27;20207;-87
2023/01/11 06:51:20;;;;;;;1.20;1.10;;;;;;;;;;5112851;28;20229;-87
2023/01/11 06:53:47;;;;;;;0.80;0.80;;;;;;;;;;5112976;28;20265;-87
2023/01/11 06:56:18;;;;;;;1.20;1.00;;;;;;;;;;5113181;28;20282;-88
2023/01/11 06:58:46;;;;;;;0.90;0.90;;;;;;;;;;5112655;28;20227;-88
2023/01/11 07:01:15;;;;;;;1.00;0.90;;;;;;;;;;5126573;28;20234;-88
2023/01/11 07:03:44;;;;;;;0.93;0.93;;;;;;;;;;5133298;27;20219;-87
2023/01/11 07:06:15;;;;;;;1.10;1.10;;;;;;;;;;5125879;28;20218;-85
2023/01/11 07:08:42;;;;;;;1.00;1.00;;;;;;;;;;5132354;28;20257;-86
2023/01/11 07:11:10;;;;;;;1.00;1.00;;;;;;;;;;5132681;28;20214;-86
2023/01/11 07:13:38;;;;;;;0.88;0.88;;;;;;;;;;5112755;28;20206;-86
2023/01/11 07:16:06;;;;;;;1.13;1.10;;;;;;;;;;5112487;28;20206;-88
2023/01/11 07:18:34;;;;;;;0.98;0.98;;;;;;;;;;5119085;27;20219;-89
2023/01/11 07:21:02;;;;;;;0.93;0.93;;;;;;;;;;5124737;28;20223;-87
2023/01/11 07:23:36;;;;;;;1.00;1.00;;;;;;;;;;5133950;28;20203;-87
2023/01/11 07:26:03;;;;;;;0.80;0.80;;;;;;;;;;5133370;28;20195;-87
2023/01/11 07:28:31;;;;;;;0.80;0.80;;;;;;;;;;5132145;28;20194;-87
2023/01/11 07:31:00;;;;;;;0.88;0.88;;;;;;;;;;5126034;28;20257;-87
2023/01/11 07:33:28;;;;;;;0.80;0.80;;;;;;;;;;5133296;27;20374;-87
2023/01/11 07:35:57;;;;;;;1.13;1.02;;;;;;;;;;5118616;27;20373;-88
2023/01/11 07:38:24;;;;;;;1.10;1.10;;;;;;;;;;5112164;28;20226;-89
2023/01/11 07:40:52;;;;;;;0.85;0.85;;;;;;;;;;5112522;28;20226;-89
2023/01/11 07:43:21;;;;;;;1.10;1.00;;;;;;;;;;5112763;28;20302;-87
2023/01/11 07:45:51;;;;;;;1.13;0.80;;;;;;;;;;5112427;28;20203;-87
2023/01/11 07:48:23;;;;;;;1.15;1.10;;;;;;;;;;5111278;28;20199;-86
2023/01/11 07:50:52;;;;;;;0.85;0.85;;;;;;;;;;5112128;28;20699;-87
2023/01/11 07:53:19;;;;;;;0.85;0.85;;;;;;;;;;5111879;28;20207;-87
2023/01/11 07:55:47;;;;;;;1.10;1.10;;;;;;;;;;5112453;28;20538;-88
2023/01/11 07:58:15;;;;;;;0.80;0.80;;;;;;;;;;5113157;28;20233;-87
2023/01/11 08:00:44;;;;;;;1.40;1.30;;;;;;;;;;5131700;27;20242;-87
2023/01/11 08:03:12;;;;;;;1.00;1.00;;;;;;;;;;5136512;27;20206;-88
2023/01/11 08:05:42;;;;;;;0.90;0.90;;;;;;;;;;5128893;27;20202;-87
2023/01/11 08:08:09;;;;;;;0.90;0.90;;;;;;;;;;5135455;27;20290;-87
2023/01/11 08:10:39;;;;;;;0.70;0.70;;;;;;;;;;5136313;27;20265;-87
2023/01/11 08:15:51;;;;;;;0.82;0.82;;;;;;;;;;5136316;27;20232;-88
2023/01/11 08:18:20;;;;;;;0.80;0.80;;;;;;;;;;5135639;27;20643;-87
2023/01/11 08:20:51;;;;;;;0.68;0.68;;;;;;;;;;5135874;27;20321;-89
2023/01/11 08:23:19;;;;;;;0.77;0.77;;;;;;;;;;5136347;27;20546;-87
2023/01/11 08:25:46;;;;;;;0.90;0.90;;;;;;;;;;5136296;27;20197;-88
2023/01/11 08:28:14;;;;;;;1.00;1.00;;;;;;;;;;5135622;27;20223;-88
2023/01/11 08:30:43;;;;;;;0.90;0.90;;;;;;;;;;5120291;27;20270;-89
2023/01/11 08:33:17;;;;;;;0.75;0.75;;;;;;;;;;5115493;28;20279;-88
2023/01/11 08:35:45;;;;;;;0.60;0.60;;;;;;;;;;5115033;28;20261;-88
2023/01/11 08:38:13;;;;;;;0.70;0.70;;;;;;;;;;5115090;28;21030;-89
2023/01/11 08:40:41;;;;;;;0.60;0.60;;;;;;;;;;5115075;28;20291;-86
2023/01/11 08:43:08;;;;;;;0.60;0.60;;;;;;;;;;5115348;28;20221;-88
2023/01/11 08:45:37;;;;;;;0.85;0.85;;;;;;;;;;5115128;28;20276;-88
2023/01/11 08:48:05;;;;;;;0.80;0.80;;;;;;;;;;5114764;28;20199;-88
2023/01/11 08:50:34;;;;;;;0.80;0.80;;;;;;;;;;5114974;28;20227;-87
2023/01/11 08:53:02;;;;;;;0.82;0.82;;;;;;;;;;5129693;27;20247;-89
2023/01/11 08:55:31;;;;;;;2.65;0.93;;;;;;;;;;5115312;28;20636;-88
2023/01/11 08:57:59;;;;;;;0.70;0.70;;;;;;;;;;5114174;28;20641;-88
2023/01/11 09:00:26;;;;;;;0.77;0.77;;;;;;;;;;5128509;27;20748;-90
2023/01/11 09:02:54;;;;;;;0.80;0.80;;;;;;;;;;5135808;27;20306;-89
2023/01/11 09:05:23;;;;;;;0.90;0.90;;;;;;;;;;5135328;27;20222;-90
2023/01/11 09:07:51;;;;;;;0.55;0.55;;;;;;;;;;5135392;27;20218;-89
2023/01/11 09:10:18;;;;;;;0.70;0.70;;;;;;;;;;5134323;27;20221;-90
2023/01/11 09:12:47;;;;;;;0.70;0.70;;;;;;;;;;5135648;27;20577;-90
2023/01/11 09:15:15;;;;;;;0.80;0.80;;;;;;;;;;5135180;27;20290;-89
2023/01/11 09:17:42;;;;;;;0.80;0.80;;;;;;;;;;5135516;27;20259;-89
2023/01/11 09:20:11;;;;;;;0.60;0.60;;;;;;;;;;5134016;27;20313;-89
2023/01/11 09:22:39;;;;;;;1.20;0.50;;;;;;;;;;5134986;27;20194;-88
2023/01/11 09:25:09;;;;;;;1.52;0.70;;;;;;;;;;5134937;27;20730;-88
2023/01/11 09:27:36;;;;;;;0.70;0.70;;;;;;;;;;5134922;27;20215;-85
2023/01/11 09:30:07;;;;;;;1.45;0.50;;;;;;;;;;5123540;27;20664;-87
2023/01/11 09:32:35;;;;;;;0.47;0.47;;;;;;;;;;5114348;28;20214;-87
2023/01/11 09:35:03;;;;;;;0.57;0.57;;;;;;;;;;5114077;28;20703;-87
2023/01/11 09:37:31;;;;;;;0.57;0.57;;;;;;;;;;5114639;27;20253;-88
2023/01/11 09:39:58;;;;;;;0.60;0.60;;;;;;;;;;5113361;28;20302;-88
2023/01/11 09:42:36;;;;;;;0.60;0.60;;;;;;;;;;5114400;28;20203;-88
2023/01/11 09:45:14;;;;;;;0.70;0.70;;;;;;;;;;5113915;28;20225;-88
2023/01/11 09:47:46;;;;;;;0.50;0.50;;;;;;;;;;5114050;28;20245;-88
2023/01/11 09:50:18;;;;;;;0.65;0.50;;;;;;;;;;5129098;27;20210;-90
2023/01/11 09:52:51;;;;;;;0.55;0.55;;;;;;;;;;5134632;27;20195;-88
2023/01/11 09:55:24;;;;;;;0.63;0.63;;;;;;;;;;5135082;27;20221;-89
2023/01/11 09:58:27;;;;;;;0.47;0.47;;;;;;;;;;5134533;27;20203;-89
2023/01/11 10:01:05;;;;;;;0.50;0.50;;;;;;;;;;5116868;27;20269;-88
2023/01/11 10:04:40;;;;;;;0.50;0.50;;;;;;;;;;5114238;28;20198;-89
2023/01/11 10:07:36;;;;;;;0.60;0.60;;;;;;;;;;5074021;28;20611;-89
2023/01/11 10:10:20;;;;;;;0.63;0.55;;;;;;;;;;5113765;28;20191;-89
2023/01/11 10:12:59;;;;;;;0.60;0.60;;;;;;;;;;5113912;28;20672;-88
2023/01/11 10:15:33;;;;;;;0.50;0.50;;;;;;;;;;5113782;28;20286;-89
2023/01/11 10:18:22;;;;;;;0.63;0.63;;;;;;;;;;5111946;28;20222;-89
2023/01/11 10:20:53;;;;;;;0.50;0.50;;;;;;;;;;5110984;28;20228;-90
2023/01/11 10:23:26;;;;;;;0.50;0.50;;;;;;;;;;5112416;28;20210;-89
2023/01/11 10:26:00;;;;;;;0.40;0.40;;;;;;;;;;5111960;28;20291;-90
2023/01/11 10:28:34;;;;;;;0.30;0.30;;;;;;;;;;5112073;28;20200;-89
2023/01/11 10:31:27;;;;;;;0.70;0.70;;;;;;;;;;5131147;27;20231;-91
2023/01/11 10:34:17;;;;;;;0.40;0.40;;;;;;;;;;5133058;27;20214;-90
2023/01/11 10:37:09;;;;;;;0.50;0.50;;;;;;;;;;5112641;28;20225;-90
2023/01/11 10:40:02;;;;;;;0.50;0.50;;;;;;;;;;5111945;28;20220;-90
2023/01/11 10:42:33;;;;;;;0.70;0.70;;;;;;;;;;5112855;28;20649;-89
2023/01/11 10:45:04;;;;;;;0.30;0.30;;;;;;;;;;5112870;28;20219;-89
2023/01/11 10:47:38;;;;;;;0.50;0.50;;;;;;;;;;5113467;28;20199;-89
2023/01/11 10:50:18;;;;;;;0.50;0.50;;;;;;;;;;5112285;28;20205;-90
2023/01/11 10:52:53;;;;;;;0.50;0.50;;;;;;;;;;5112979;28;20267;-90
2023/01/11 10:55:39;;;;;;;0.60;0.60;;;;;;;;;;5112820;28;20233;-90
2023/01/11 10:58:17;;;;;;;0.70;0.70;;;;;;;;;;5112110;28;20207;-90
2023/01/11 11:00:50;;;;;;;0.70;0.70;;;;;;;;;;5128851;28;20690;-90
2023/01/11 11:04:00;;;;;;;0.80;0.50;;;;;;;;;;5133280;28;20617;-89
2023/01/11 11:06:37;;;;;;;0.75;0.75;;;;;;;;;;5129842;28;20231;-90
2023/01/11 11:09:16;;;;;;;0.45;0.45;;;;;;;;;;5132510;27;20203;-90
2023/01/11 11:11:51;;;;;;;0.45;0.45;;;;;;;;;;5133509;27;20294;-90
2023/01/11 11:14:24;;;;;;;0.50;0.50;;;;;;;;;;5133713;27;20194;-90
2023/01/11 11:17:02;;;;;;;0.47;0.47;;;;;;;;;;5133920;28;20230;-90
2023/01/11 11:19:32;;;;;;;0.60;0.60;;;;;;;;;;5132365;28;20226;-89
2023/01/11 11:22:01;;;;;;;0.50;0.50;;;;;;;;;;5133479;27;20242;-90
2023/01/11 11:24:34;;;;;;;1.33;0.55;;;;;;;;;;5132482;28;20727;-90
2023/01/11 11:27:07;;;;;;;0.30;0.30;;;;;;;;;;5134090;28;20206;-90
2023/01/11 11:29:42;;;;;;;0.45;0.45;;;;;;;;;;5133393;28;20681;-90
2023/01/11 11:32:21;;;;;;;0.57;0.57;;;;;;;;;;5134004;27;20238;-87
2023/01/11 11:34:49;;;;;;;0.60;0.52;;;;;;;;;;5135818;27;20238;-88
2023/01/11 11:37:32;;;;;;;0.50;0.50;;;;;;;;;;5135878;27;20278;-88
2023/01/11 11:39:59;;;;;;;0.60;0.60;;;;;;;;;;5135518;27;20218;-87
2023/01/11 11:42:27;;;;;;;0.40;0.40;;;;;;;;;;5135994;27;20201;-88
2023/01/11 11:45:17;;;;;;;0.50;0.50;;;;;;;;;;5135905;27;20304;-88
2023/01/11 11:48:01;;;;;;;0.40;0.40;;;;;;;;;;5136150;27;20234;-88
2023/01/11 11:50:29;;;;;;;1.15;0.43;;;;;;;;;;5135547;27;20215;-88
2023/01/11 11:53:03;;;;;;;0.47;0.47;;;;;;;;;;5135740;27;20232;-87
2023/01/11 11:55:33;;;;;;;0.70;0.70;;;;;;;;;;5135524;27;20205;-87
2023/01/11 11:58:07;;;;;;;0.32;0.30;;;;;;;;;;5135198;27;20286;-90
2023/01/11 12:00:40;;;;;;;0.40;0.40;;;;;;;;;;5120637;27;20235;-87
2023/01/11 12:03:15;;;;;;;0.40;0.40;;;;;;;;;;5115338;28;20253;-87
2023/01/11 12:05:51;;;;;;;0.40;0.40;;;;;;;;;;5127436;27;20686;-88
2023/01/11 12:08:21;;;;;;;0.52;0.52;;;;;;;;;;5134950;27;20285;-87
2023/01/11 12:10:52;;;;;;;0.40;0.40;;;;;;;;;;5141423;27;20218;-87
2023/01/11 12:13:33;;;;;;;0.30;0.30;;;;;;;;;;5142969;27;20298;-88
2023/01/11 12:16:03;;;;;;;0.52;0.40;;;;;;;;;;5140631;27;20199;-87
2023/01/11 12:18:40;;;;;;;0.60;0.60;;;;;;;;;;5143214;27;20575;-87
2023/01/11 12:21:19;;;;;;;0.60;0.60;;;;;;;;;;5142240;27;20678;-87
2023/01/11 12:23:48;;;;;;;0.60;0.60;;;;;;;;;;5143422;27;20199;-87
2023/01/11 12:26:23;;;;;;;0.82;0.82;;;;;;;;;;5144616;27;20233;-87
2023/01/11 12:29:28;;;;;;;0.57;0.57;;;;;;;;;;5115471;22;20232;-82
2023/01/11 12:32:19;;;;;;;0.50;0.50;;;;;;;;;;5076346;28;20227;-82
2023/01/11 12:35:14;;;;;;;0.70;0.70;;;;;;;;;;5075202;28;20239;-82
2023/01/11 12:38:07;;;;;;;0.50;0.50;;;;;;;;;;5075446;28;20643;-81
2023/01/11 12:40:40;;;;;;;0.50;0.50;;;;;;;;;;5074836;28;20614;-81
2023/01/11 12:43:33;;;;;;;0.32;0.32;;;;;;;;;;5073722;28;20293;-82
2023/01/11 12:46:10;;;;;;;0.40;0.40;;;;;;;;;;5075022;28;20209;-81
2023/01/11 12:49:02;;;;;;;0.60;0.60;;;;;;;;;;5079637;28;20220;-82
2023/01/11 12:51:54;;;;;;;0.50;0.50;;;;;;;;;;5091683;28;20284;-81
2023/01/11 12:54:40;;;;;;;0.65;0.65;;;;;;;;;;5090875;28;20269;-82
2023/01/11 12:57:18;;;;;;;0.60;0.60;;;;;;;;;;5081891;28;20264;-83
2023/01/11 13:00:32;;;;;;;0.47;0.47;;;;;;;;;;5076701;28;20213;-83
2023/01/11 13:03:42;;;;;;;2.03;1.83;;;;;;;;;;5059068;28;20693;-82
2023/01/11 13:06:14;;;;;;;1.02;0.98;;;;;;;;;;5043941;28;20205;-81
2023/01/11 13:08:53;;;;;;;0.47;0.47;;;;;;;;;;5073740;28;20251;-81
2023/01/11 13:11:36;;;;;;;0.50;0.50;;;;;;;;;;5074181;28;20292;-81
2023/01/11 13:14:34;;;;;;;0.60;0.60;;;;;;;;;;5074541;28;20586;-82
2023/01/11 13:17:13;;;;;;;0.90;0.90;;;;;;;;;;5074316;28;20779;-82
2023/01/11 13:19:47;;;;;;;1.45;1.35;;;;;;;;;;5074029;28;20205;-82
2023/01/11 13:22:18;;;;;;;1.63;1.50;;;;;;;;;;5066804;28;20233;-83
2023/01/11 13:24:47;;;;;;;2.90;2.08;;;;;;;;;;5074896;28;20201;-84
2023/01/11 13:27:21;;;;;;;2.08;1.83;;;;;;;;;;5074851;28;20296;-82
2023/01/11 13:29:52;;;;;;;2.67;1.80;;;;;;;;;;5074166;28;20213;-81
2023/01/11 13:32:23;;;;;;;2.15;1.98;;;;;;;;;;5074123;28;20201;-81
2023/01/11 13:34:54;;;;;;;2.03;1.65;;;;;;;;;;5068757;28;20205;-81
2023/01/11 13:37:29;;;;;;;2.17;1.98;;;;;;;;;;5053572;28;20741;-81
2023/01/11 13:40:03;;;;;;;2.58;1.88;;;;;;;;;;5053033;28;20323;-81
2023/01/11 13:42:36;;;;;;;1.73;1.63;;;;;;;;;;5053308;28;20768;-80
2023/01/11 13:45:13;;;;;;;1.73;1.63;;;;;;;;;;5053834;28;20584;-80
2023/01/11 13:47:44;;;;;;;5.05;4.55;;;;;;;;;;5053643;28;20225;-81
2023/01/11 13:50:20;;;;;;;10.90;6.93;;;;;;;;;;5052679;28;20598;-81
2023/01/11 13:52:58;;;;;;;4.22;3.35;;;;;;;;;;5052527;28;20197;-81
2023/01/11 13:55:30;;;;;;;4.30;2.50;;;;;;;;;;5053152;28;20220;-80
2023/01/11 13:58:03;;;;;;;2.75;2.53;;;;;;;;;;5052784;28;20235;-82
2023/01/11 14:00:38;;;;;;;1.98;1.83;;;;;;;;;;5066839;28;20205;-81
2023/01/11 14:03:17;;;;;;;1.50;1.40;;;;;;;;;;5072631;28;20319;-81
2023/01/11 14:05:54;;;;;;;2.00;1.75;;;;;;;;;;5072728;28;20698;-81
2023/01/11 14:09:00;;;;;;;1.48;1.38;;;;;;;;;;5071988;28;20224;-81
2023/01/11 14:11:32;;;;;;;2.90;2.58;;;;;;;;;;5069483;28;20732;-81
2023/01/11 14:14:27;;;;;;;3.15;2.25;;;;;;;;;;5072874;28;20209;-81
2023/01/11 14:17:32;;;;;;;2.05;1.77;;;;;;;;;;5073024;28;20209;-81
2023/01/11 14:20:07;;;;;;;1.50;1.40;;;;;;;;;;5071411;28;20710;-80
2023/01/11 14:22:41;;;;;;;1.80;1.20;;;;;;;;;;5072689;28;20248;-81
2023/01/11 14:25:16;;;;;;;1.50;1.40;;;;;;;;;;5072541;28;20205;-81
2023/01/11 14:28:01;;;;;;;1.65;1.55;;;;;;;;;;5072183;28;20730;-80
2023/01/11 14:30:42;;;;;;;1.17;1.10;;;;;;;;;;5072727;28;20658;-80
2023/01/11 14:33:53;;;;;;;1.48;1.38;;;;;;;;;;5073147;28;20212;-83
2023/01/11 14:37:13;;;;;;;3.53;2.45;;;;;;;;;;5051773;28;20209;-80
2023/01/11 14:40:05;;;;;;;2.22;2.03;;;;;;;;;;5049260;28;20204;-81
2023/01/11 14:43:11;;;;;;;4.18;2.05;;;;;;;;;;5072990;28;20260;-80
2023/01/11 14:46:01;;;;;;;4.60;2.15;;;;;;;;;;5069045;28;20747;-81
2023/01/11 14:48:34;;;;;;;2.25;1.90;;;;;;;;;;5073014;28;20247;-80
2023/01/11 14:51:21;;;;;;;3.58;2.35;;;;;;;;;;5072723;28;20223;-80
2023/01/11 14:53:53;;;;;;;1.73;1.63;;;;;;;;;;5071534;28;20200;-80
2023/01/11 14:56:49;;;;;;;2.33;1.80;;;;;;;;;;5072254;28;20315;-81
2023/01/11 14:59:32;;;;;;;5.63;3.13;;;;;;;;;;5071548;28;20233;-81
2023/01/11 15:02:28;;;;;;;3.33;3.08;;;;;;;;;;5071998;28;20326;-82
2023/01/11 15:05:08;;;;;;;3.33;3.13;;;;;;;;;;5050436;28;20215;-80
2023/01/11 15:07:41;;;;;;;4.50;3.58;;;;;;;;;;5074147;28;20712;-80
2023/01/11 15:10:49;;;;;;;5.22;4.72;;;;;;;;;;5075201;28;20591;-80
2023/01/11 15:13:21;;;;;;;4.47;2.95;;;;;;;;;;5075704;28;20660;-79
2023/01/11 15:18:43;;;;;;;2.17;1.98;;;;;;;;;;5074788;28;20306;-80
2023/01/11 15:21:17;;;;;;;2.20;2.00;;;;;;;;;;5075219;28;20254;-81
2023/01/11 15:23:53;;;;;;;3.17;2.08;;;;;;;;;;5075467;28;20225;-82
2023/01/11 15:26:23;;;;;;;1.70;1.52;;;;;;;;;;5075824;28;20266;-81
2023/01/11 15:28:52;;;;;;;1.75;1.60;;;;;;;;;;5075620;28;20742;-82
2023/01/11 15:31:35;;;;;;;2.83;1.90;;;;;;;;;;5055974;28;20202;-85
2023/01/11 15:34:17;;;;;;;2.53;1.60;;;;;;;;;;5055215;28;20201;-81
2023/01/11 15:37:33;;;;;;;2.35;1.45;;;;;;;;;;5055072;28;20193;-82
2023/01/11 15:40:09;;;;;;;1.80;1.70;;;;;;;;;;5054377;28;20284;-82
2023/01/11 15:43:30;;;;;;;1.45;1.35;;;;;;;;;;5054391;28;20267;-81
2023/01/11 15:46:54;;;;;;;1.58;1.33;;;;;;;;;;5056622;28;20207;-81
2023/01/11 15:50:23;;;;;;;2.38;1.60;;;;;;;;;;5029347;28;20217;-81